PST,Max TemperatureF,Mean TemperatureF,Min TemperatureF,Max Dew PointF,MeanDew PointF,Min DewpointF,Max Humidity, Mean Humidity, Min Humidity, Max Sea Level PressureIn, Mean Sea Level PressureIn, Min Sea Level PressureIn, Max VisibilityMiles, Mean VisibilityMiles, Min VisibilityMiles, Max Wind SpeedMPH, Mean Wind SpeedMPH, Max Gust SpeedMPH,PrecipitationIn, CloudCover, Events, WindDirDegrees
2011-11-1,54,40,25,33,27,22,100,69,34,30.56,30.50,30.38,10,10,5,8,4,,0.00,0,,139
2011-11-2,57,38,19,32,25,18,96,63,29,30.45,30.12,29.83,10,9,2,10,4,,0.00,0,Snow,210
2011-11-3,52,40,30,37,32,23,89,67,46,29.86,29.82,29.77,10,10,6,12,5,,0.00,4,,197
2011-11-4,52,43,35,34,29,24,92,67,35,29.87,29.83,29.78,10,10,10,14,7,,0.00,2,,244
2011-11-5,50,36,24,30,27,21,88,63,43,29.86,29.84,29.81,10,10,10,12,5,,0.00,4,,126
2011-11-6,48,38,21,29,27,19,92,63,46,30.18,29.98,29.84,10,10,10,8,5,,0.00,6,,69
2011-11-7,52,36,19,33,28,18,96,74,49,30.26,30.24,30.21,10,10,10,8,3,,0.00,3,,196
2011-11-8,55,40,25,35,30,24,96,75,45,30.33,30.29,30.26,10,10,10,6,3,,0.00,1,,112
2011-11-9,55,41,25,34,31,23,96,69,42,30.40,30.32,30.26,10,10,9,13,3,,0.00,2,,72
2011-11-10,50,36,21,34,27,21,100,83,50,30.25,30.14,29.98,10,9,5,6,2,,0.00,0,,144
2011-11-11,54,36,19,43,31,18,96,69,38,29.95,29.65,29.46,10,9,3,21,5,29,0.13,4,Rain,220
2011-11-12,50,44,37,38,33,30,82,66,50,29.87,29.76,29.63,10,10,10,21,13,30,0.01,4,Rain,229
2011-11-13,55,50,46,38,35,34,66,55,47,29.82,29.76,29.64,10,9,6,36,20,46,0.01,1,,241
2011-11-14,57,47,37,37,34,27,70,56,40,30.08,29.90,29.81,10,10,7,33,19,47,0.00,1,,240
2011-11-15,48,36,21,32,26,19,92,73,43,30.32,30.24,30.09,10,10,10,8,5,,0.00,0,,174
2011-11-16,35,27,19,32,28,17,96,90,72,30.31,30.07,29.71,10,8,2,7,2,,0.05,5,Rain-Snow,241
2011-11-17,48,40,32,40,35,32,100,81,54,29.89,29.78,29.65,10,8,2,15,8,24,0.09,5,Rain,217
2011-11-18,45,36,28,36,32,26,96,83,63,29.76,29.64,29.60,10,10,9,15,9,23,0.05,3,Rain,229
2011-11-19,39,34,30,36,32,28,100,89,79,29.96,29.84,29.76,10,10,8,9,5,,0.03,8,Rain,55
2011-11-20,36,34,32,30,29,27,93,84,73,30.04,29.99,29.94,10,10,6,7,3,,0.00,8,,52
2011-11-21,41,34,28,37,31,28,96,87,73,29.96,29.88,29.77,10,8,6,7,3,,0.01,6,Rain,12
2011-11-22,66,54,43,38,37,36,82,43,32,29.74,29.68,29.63,10,10,10,28,14,37,0.00,5,,188
2011-11-23,68,57,46,41,31,22,73,39,17,29.81,29.61,29.51,10,10,10,24,17,33,0.00,5,Rain,211
2011-11-24,50,42,34,41,36,30,86,74,58,29.87,29.81,29.74,10,10,10,23,7,34,0.03,4,Rain,232
2011-11-25,48,38,28,37,31,25,85,67,44,30.52,30.29,29.91,10,10,10,22,15,32,0.00,1,,231
2011-11-26,48,38,28,32,30,27,96,75,48,30.51,30.43,30.26,10,10,10,5,1,,0.00,2,,196
2011-11-27,54,40,27,40,33,26,96,75,55,30.31,30.18,30.03,10,10,7,20,5,29,0.00,3,,209
2011-11-28,50,39,28,37,32,27,100,81,57,30.45,30.41,30.34,10,10,8,9,4,,0.00,0,,176
2011-11-29,43,36,28,35,32,27,100,85,62,30.40,30.27,30.17,10,10,6,12,4,,0.00,3,,210
2011-11-30,53,40,27,38,32,20,89,69,43,30.74,30.47,30.24,10,10,8,13,7,,0.01,3,Rain,260